Time;durP1;ratioP1;P1;durP2;ratioP2;P2;SDS_P1;SDS_P2;PMS_P1;PMS_P2;Temp;Humidity;BMP_temperature;BMP_pressure;BME280_temperature;BME280_humidity;BME280_pressure;Samples;Min_cycle;Max_cycle;Signal;HPM_P1;HPM_P2
2023/05/23 00:01:53;;;;;;;12.67;4.20;;;;;;;12.92;66.28;100206.56;4269922;28;20811;-61
2023/05/23 00:04:20;;;;;;;12.43;3.80;;;;;;;12.81;66.99;100198.72;4266148;28;20304;-62
2023/05/23 00:06:49;;;;;;;11.73;4.43;;;;;;;12.84;67.34;100207.38;4267220;28;21751;-62
2023/05/23 00:09:16;;;;;;;7.93;3.77;;;;;;;12.82;67.02;100197.69;4264446;28;20474;-62
2023/05/23 00:11:44;;;;;;;7.77;4.00;;;;;;;12.77;67.23;100197.38;4267504;27;20230;-63
2023/05/23 00:14:14;;;;;;;11.17;4.67;;;;;;;12.76;67.09;100201.09;4266644;28;20305;-63
2023/05/23 00:16:42;;;;;;;11.50;4.07;;;;;;;12.74;67.63;100206.72;4268290;28;22228;-62
2023/05/23 00:19:10;;;;;;;8.20;3.90;;;;;;;12.71;68.02;100198.03;4262012;28;20766;-62
2023/05/23 00:21:37;;;;;;;6.33;3.93;;;;;;;12.70;67.95;100199.06;4267924;28;20230;-60
2023/05/23 00:24:03;;;;;;;10.13;4.00;;;;;;;12.66;67.80;100198.53;4267318;28;20237;-62
2023/05/23 00:26:31;;;;;;;8.33;3.93;;;;;;;12.71;67.02;100190.72;4249869;28;20325;-62
2023/05/23 00:28:57;;;;;;;7.43;4.03;;;;;;;12.70;66.97;100196.34;4264580;28;20225;-60
2023/05/23 00:31:24;;;;;;;9.27;3.83;;;;;;;12.71;66.90;100193.44;4269752;28;20278;-61
2023/05/23 00:33:51;;;;;;;9.93;4.20;;;;;;;12.70;66.75;100186.31;4274192;28;20240;-61
2023/05/23 00:36:17;;;;;;;9.03;4.57;;;;;;;12.76;66.21;100187.50;4255818;28;20234;-60
2023/05/23 00:38:48;;;;;;;6.20;3.80;;;;;;;12.77;66.17;100187.34;4265067;28;20824;-61
2023/05/23 00:41:15;;;;;;;11.50;4.13;;;;;;;12.80;65.60;100187.00;4258336;28;20289;-61
2023/05/23 00:43:41;;;;;;;8.83;4.03;;;;;;;12.80;65.35;100184.31;4271076;28;20237;-63
2023/05/23 00:46:09;;;;;;;10.13;3.73;;;;;;;12.82;65.16;100182.28;4266272;28;20281;-61
2023/05/23 00:48:37;;;;;;;14.80;4.33;;;;;;;12.77;65.28;100183.78;4276021;28;20755;-61
2023/05/23 00:51:04;;;;;;;6.23;3.67;;;;;;;12.71;65.11;100185.31;4279330;28;20251;-60
2023/05/23 00:53:31;;;;;;;8.77;3.33;;;;;;;12.70;65.42;100186.31;4261902;28;20231;-61
2023/05/23 00:55:57;;;;;;;7.33;3.67;;;;;;;12.67;65.50;100183.94;4270552;28;20233;-64
2023/05/23 00:58:24;;;;;;;10.00;4.40;;;;;;;12.58;65.86;100182.22;4275790;28;24995;-61
2023/05/23 01:00:53;;;;;;;9.13;4.00;;;;;;;12.66;65.18;100179.53;4273534;28;20567;-59
2023/05/23 01:03:20;;;;;;;8.07;3.93;;;;;;;12.65;65.53;100184.09;4269463;28;20296;-60
2023/05/23 01:05:46;;;;;;;7.20;3.70;;;;;;;12.63;65.74;100185.28;4266670;28;20229;-60
2023/05/23 01:08:14;;;;;;;9.83;4.27;;;;;;;12.50;66.52;100188.50;4280960;28;21044;-61
2023/05/23 01:10:41;;;;;;;7.87;3.97;;;;;;;12.51;66.73;100185.63;4270539;28;20293;-60
2023/05/23 01:13:23;;;;;;;11.83;4.30;;;;;;;12.55;67.25;100174.41;4278430;27;26093;-62
2023/05/23 01:15:56;;;;;;;7.23;4.03;;;;;;;12.50;67.31;100183.91;4266290;28;21666;-62
2023/05/23 01:18:40;;;;;;;9.53;4.47;;;;;;;12.32;68.31;100192.19;4263976;28;21157;-59
2023/05/23 01:21:16;;;;;;;11.00;5.00;;;;;;;12.14;70.36;100186.00;4264952;28;20222;-62
2023/05/23 01:24:28;;;;;;;13.00;4.77;;;;;;;12.03;70.60;100188.00;4273603;28;20217;-65
2023/05/23 01:27:08;;;;;;;9.60;4.10;;;;;;;12.09;70.40;100188.38;4256907;28;21009;-62
2023/05/23 01:29:42;;;;;;;10.30;4.53;;;;;;;12.11;69.00;100183.63;4279188;28;20224;-58
2023/05/23 01:32:10;;;;;;;7.93;4.47;;;;;;;12.17;69.02;100177.53;4264221;28;20544;-61
2023/05/23 01:34:39;;;;;;;10.27;4.33;;;;;;;12.23;68.12;100181.47;4274888;28;23172;-60
2023/05/23 01:37:09;;;;;;;9.00;4.80;;;;;;;12.19;68.06;100167.38;4248883;28;20226;-63
2023/05/23 01:39:36;;;;;;;10.77;4.27;;;;;;;12.28;67.75;100182.66;4270331;28;21159;-60
2023/05/23 01:42:03;;;;;;;10.30;4.20;;;;;;;12.30;67.61;100177.09;4276730;28;20233;-62
2023/05/23 01:44:31;;;;;;;9.47;4.50;;;;;;;12.21;67.75;100170.75;4267997;28;20229;-60
2023/05/23 01:46:57;;;;;;;8.53;4.53;;;;;;;12.31;67.66;100165.22;4248989;28;20338;-60
2023/05/23 01:49:24;;;;;;;8.83;4.70;;;;;;;12.27;67.91;100171.97;4252739;28;20230;-60
2023/05/23 01:51:51;;;;;;;11.93;4.53;;;;;;;12.30;67.83;100166.22;4256976;28;20435;-61
2023/05/23 01:54:18;;;;;;;7.80;4.57;;;;;;;12.22;68.21;100161.59;4255919;28;20334;-63
2023/05/23 01:56:46;;;;;;;9.57;4.27;;;;;;;12.18;69.10;100165.69;4256165;28;23057;-61
2023/05/23 01:59:13;;;;;;;11.77;5.13;;;;;;;12.06;69.92;100162.41;4277862;28;20233;-62
2023/05/23 02:01:40;;;;;;;10.30;4.80;;;;;;;12.00;70.18;100166.63;4261010;28;22102;-61
2023/05/23 02:04:07;;;;;;;8.77;4.10;;;;;;;11.86;70.71;100161.78;4251338;28;20234;-58
2023/05/23 02:06:33;;;;;;;7.80;4.43;;;;;;;11.79;71.39;100158.03;4266152;28;20232;-64
2023/05/23 02:09:00;;;;;;;8.87;4.43;;;;;;;11.76;71.76;100153.78;4269313;28;20281;-58
2023/05/23 02:11:26;;;;;;;9.13;4.47;;;;;;;11.74;71.58;100155.78;4261855;28;20222;-62
2023/05/23 02:13:53;;;;;;;8.87;4.57;;;;;;;11.68;71.41;100151.88;4254930;28;20231;-60
2023/05/23 02:16:20;;;;;;;10.67;4.60;;;;;;;11.83;70.85;100153.97;4254874;28;23064;-61
2023/05/23 02:18:47;;;;;;;8.40;4.67;;;;;;;11.80;70.54;100151.59;4274837;28;21562;-59
2023/05/23 02:21:14;;;;;;;8.77;4.33;;;;;;;11.79;70.54;100150.72;4277395;28;20308;-61
2023/05/23 02:23:41;;;;;;;10.00;4.17;;;;;;;11.82;70.41;100150.41;4266424;28;20233;-60
2023/05/23 02:26:07;;;;;;;9.57;4.63;;;;;;;11.81;70.11;100148.72;4265451;28;21139;-63
2023/05/23 02:28:34;;;;;;;13.47;4.80;;;;;;;11.79;69.14;100149.88;4274830;28;20311;-61
2023/05/23 02:31:01;;;;;;;9.53;3.97;;;;;;;11.83;68.80;100141.28;4263536;28;21147;-61
2023/05/23 02:33:27;;;;;;;10.17;4.23;;;;;;;11.89;68.06;100135.19;4259119;28;20511;-60
2023/05/23 02:35:54;;;;;;;9.70;4.30;;;;;;;11.92;68.22;100133.16;4259196;28;20899;-62
2023/05/23 02:38:21;;;;;;;10.53;4.20;;;;;;;12.13;65.69;100141.75;4269672;28;20237;-62
2023/05/23 02:40:49;;;;;;;8.13;4.10;;;;;;;12.23;65.21;100133.47;4264311;28;22326;-61
2023/05/23 02:43:16;;;;;;;9.60;4.20;;;;;;;12.32;64.45;100135.19;4262139;28;21724;-58
2023/05/23 02:45:42;;;;;;;7.67;4.00;;;;;;;12.33;64.65;100136.88;4269959;28;21291;-62
2023/05/23 02:48:10;;;;;;;7.87;3.90;;;;;;;12.44;63.53;100127.56;4260649;28;20233;-61
2023/05/23 02:50:37;;;;;;;8.73;4.57;;;;;;;12.58;63.43;100131.47;4269777;28;20238;-61
2023/05/23 02:53:04;;;;;;;8.00;3.50;;;;;;;12.68;62.21;100137.59;4262403;28;20597;-59
2023/05/23 02:55:30;;;;;;;8.77;4.10;;;;;;;12.73;61.36;100131.66;4266656;28;20281;-60
2023/05/23 02:57:57;;;;;;;7.90;4.20;;;;;;;12.74;62.08;100132.50;4271922;28;20861;-60
2023/05/23 03:00:24;;;;;;;6.87;3.67;;;;;;;12.79;62.16;100131.00;4273925;28;20310;-64
2023/05/23 03:02:51;;;;;;;6.53;3.83;;;;;;;12.83;62.18;100134.22;4256054;28;21601;-60
2023/05/23 03:05:17;;;;;;;14.17;3.57;;;;;;;12.91;61.69;100126.06;4271720;28;20633;-59
2023/05/23 03:07:44;;;;;;;11.30;3.80;;;;;;;12.95;61.80;100126.56;4272048;28;20226;-63
2023/05/23 03:10:11;;;;;;;6.50;3.60;;;;;;;12.99;61.78;100133.38;4264554;28;20233;-58
2023/05/23 03:12:38;;;;;;;7.63;4.03;;;;;;;13.05;61.29;100129.09;4266137;28;21667;-64
2023/05/23 03:15:05;;;;;;;7.90;3.80;;;;;;;13.12;61.55;100128.25;4277943;28;20559;-60
2023/05/23 03:17:31;;;;;;;8.60;4.10;;;;;;;13.14;61.27;100130.81;4276005;28;20303;-61
2023/05/23 03:19:58;;;;;;;8.93;3.80;;;;;;;13.22;60.73;100122.63;4296003;27;20523;-60
2023/05/23 03:22:25;;;;;;;7.27;3.90;;;;;;;13.22;61.04;100132.69;4261001;28;20409;-61
2023/05/23 03:24:51;;;;;;;6.30;3.60;;;;;;;13.27;61.40;100127.56;4273835;28;20539;-60
2023/05/23 03:27:18;;;;;;;13.00;3.97;;;;;;;13.42;60.10;100130.44;4285196;28;25342;-61
2023/05/23 03:29:46;;;;;;;9.13;4.07;;;;;;;13.36;60.22;100123.81;4259683;28;20234;-63
2023/05/23 03:32:13;;;;;;;8.93;4.30;;;;;;;13.40;60.41;100127.91;4274744;28;21078;-61
2023/05/23 03:34:40;;;;;;;10.10;3.83;;;;;;;13.44;60.88;100126.50;4269063;28;21956;-61
2023/05/23 03:37:06;;;;;;;12.03;4.40;;;;;;;13.56;59.14;100124.28;4278997;28;20551;-64
2023/05/23 03:39:33;;;;;;;11.47;4.30;;;;;;;13.60;59.67;100128.34;4256655;28;20230;-59
2023/05/23 03:42:00;;;;;;;6.67;3.70;;;;;;;13.70;59.50;100128.16;4266832;28;21161;-60
2023/05/23 03:44:26;;;;;;;11.53;4.00;;;;;;;13.75;59.14;100128.47;4271612;28;20232;-63
2023/05/23 03:46:53;;;;;;;10.53;4.50;;;;;;;13.85;58.35;100127.41;4276460;28;20233;-59
2023/05/23 03:49:19;;;;;;;9.50;4.20;;;;;;;13.95;58.38;100126.16;4275136;28;20236;-59
2023/05/23 03:51:46;;;;;;;8.63;4.40;;;;;;;14.03;58.80;100128.03;4253747;28;20226;-59
2023/05/23 03:54:13;;;;;;;9.43;4.23;;;;;;;14.13;57.85;100122.34;4271803;28;20268;-63
2023/05/23 03:56:39;;;;;;;7.03;3.47;;;;;;;14.32;57.12;100131.06;4264662;28;20230;-59
2023/05/23 03:59:06;;;;;;;11.53;4.73;;;;;;;14.33;57.05;100128.19;4243339;28;20324;-61
2023/05/23 04:01:32;;;;;;;9.63;4.40;;;;;;;14.34;56.78;100129.03;4277683;28;20236;-60
2023/05/23 04:03:59;;;;;;;18.43;4.47;;;;;;;14.42;56.57;100126.25;4277916;28;22309;-61
2023/05/23 04:06:28;;;;;;;12.03;4.40;;;;;;;14.50;56.20;100117.19;4262601;28;20288;-63
2023/05/23 04:08:56;;;;;;;7.83;3.83;;;;;;;14.60;55.51;100120.50;4255444;28;20259;-59
2023/05/23 04:11:22;;;;;;;9.77;4.63;;;;;;;14.65;55.57;100118.06;4265430;28;22745;-62
2023/05/23 04:13:50;;;;;;;9.47;4.37;;;;;;;14.71;56.08;100114.69;4273178;28;20316;-63
2023/05/23 04:16:17;;;;;;;8.50;3.90;;;;;;;14.84;54.81;100111.31;4268269;28;20223;-62
2023/05/23 04:18:45;;;;;;;16.67;4.67;;;;;;;14.94;54.64;100116.53;4274390;28;21074;-62
2023/05/23 04:21:12;;;;;;;8.37;4.20;;;;;;;15.07;54.18;100118.59;4266590;28;20237;-64
2023/05/23 04:23:39;;;;;;;14.93;4.60;;;;;;;15.17;54.45;100107.47;4266861;28;20235;-59
2023/05/23 04:26:06;;;;;;;16.97;4.00;;;;;;;15.33;53.47;100104.53;4275646;28;21963;-59
2023/05/23 04:28:33;;;;;;;10.67;4.90;;;;;;;15.50;52.86;100115.28;4256180;28;20234;-62
2023/05/23 04:31:01;;;;;;;7.97;4.03;;;;;;;15.58;52.88;100114.34;4263677;28;21824;-61
2023/05/23 04:33:29;;;;;;;10.17;4.40;;;;;;;15.41;53.65;100120.00;4267686;28;21332;-61
2023/05/23 04:35:56;;;;;;;14.00;4.53;;;;;;;15.45;53.52;100109.53;4268092;28;20233;-59
2023/05/23 04:38:24;;;;;;;11.47;4.40;;;;;;;15.49;53.21;100108.13;4263098;28;23517;-62
2023/05/23 04:40:51;;;;;;;14.17;4.30;;;;;;;15.48;52.96;100107.28;4251452;28;21765;-63
2023/05/23 04:43:18;;;;;;;11.37;4.00;;;;;;;15.53;53.03;100102.09;4277073;28;20245;-62
2023/05/23 04:45:48;;;;;;;13.83;4.47;;;;;;;15.66;52.89;100109.63;4270560;28;20574;-61
2023/05/23 04:48:16;;;;;;;9.83;4.57;;;;;;;15.70;52.90;100112.84;4269717;28;20230;-61
2023/05/23 04:50:43;;;;;;;23.17;5.13;;;;;;;15.70;52.79;100112.84;4262551;28;20225;-62
2023/05/23 04:53:09;;;;;;;8.43;4.20;;;;;;;15.87;52.79;100112.66;4270168;28;20237;-61
2023/05/23 04:55:36;;;;;;;10.13;4.27;;;;;;;15.98;52.85;100096.66;4264542;28;26265;-60
2023/05/23 04:58:03;;;;;;;19.37;4.87;;;;;;;16.11;52.09;100108.75;4261092;28;25614;-60
2023/05/23 05:00:29;;;;;;;9.10;3.80;;;;;;;16.27;52.06;100103.06;4258251;28;20240;-60
2023/05/23 05:02:56;;;;;;;18.03;5.00;;;;;;;16.37;52.46;100102.75;4265689;28;20279;-60
2023/05/23 05:05:22;;;;;;;8.33;3.63;;;;;;;16.46;51.16;100100.75;4265053;28;21744;-61
2023/05/23 05:07:49;;;;;;;7.37;3.80;;;;;;;16.59;50.89;100094.56;4259331;28;20242;-63
2023/05/23 05:10:16;;;;;;;10.23;4.23;;;;;;;16.63;51.00;100098.59;4264296;28;20241;-61
2023/05/23 05:12:48;;;;;;;9.00;3.90;;;;;;;16.69;50.72;100094.25;4276129;28;22754;-62
2023/05/23 05:15:18;;;;;;;8.80;4.27;;;;;;;16.75;50.17;100085.25;4267635;28;20263;-62
2023/05/23 05:17:45;;;;;;;14.77;4.20;;;;;;;16.91;50.16;100095.91;4263817;28;20287;-59
2023/05/23 05:20:16;;;;;;;8.70;4.13;;;;;;;17.00;49.60;100093.03;4249388;28;20229;-64
2023/05/23 05:22:43;;;;;;;10.37;3.77;;;;;;;17.19;49.58;100088.75;4263513;28;20565;-60
2023/05/23 05:25:10;;;;;;;16.10;4.63;;;;;;;17.54;48.84;100084.16;4264455;28;20621;-62
2023/05/23 05:27:36;;;;;;;6.80;3.37;;;;;;;18.01;48.48;100089.88;4253261;28;20283;-61
2023/05/23 05:30:07;;;;;;;10.60;4.20;;;;;;;18.33;46.23;100087.44;4275255;28;20242;-62
2023/05/23 05:32:34;;;;;;;11.47;3.57;;;;;;;18.33;46.68;100081.97;4272234;28;20258;-61
2023/05/23 05:35:02;;;;;;;11.53;3.67;;;;;;;19.33;44.18;100091.31;4261022;28;24116;-64
2023/05/23 05:37:29;;;;;;;15.73;4.00;;;;;;;19.78;43.76;100079.56;4268998;28;20268;-64
2023/05/23 05:39:55;;;;;;;12.83;4.07;;;;;;;19.95;42.44;100083.56;4279066;28;21919;-61
2023/05/23 05:42:22;;;;;;;13.33;4.20;;;;;;;20.13;43.02;100079.22;4282649;28;20351;-72
2023/05/23 05:44:49;;;;;;;11.07;3.37;;;;;;;21.12;40.42;100084.25;4268566;28;20254;-62
2023/05/23 05:47:16;;;;;;;9.97;4.10;;;;;;;21.80;39.07;100085.25;4266160;28;20264;-61
2023/05/23 05:49:42;;;;;;;14.10;4.37;;;;;;;22.90;36.57;100082.44;4268866;28;23157;-64
2023/05/23 05:52:11;;;;;;;17.17;3.47;;;;;;;22.97;36.68;100089.78;4291726;28;20830;-58
2023/05/23 05:54:38;;;;;;;13.80;3.70;;;;;;;23.05;35.92;100087.53;4272804;28;20236;-61
2023/05/23 05:57:05;;;;;;;13.20;3.93;;;;;;;24.82;33.92;100076.25;4269882;28;20230;-62
2023/05/23 05:59:31;;;;;;;16.13;3.87;;;;;;;24.91;32.56;100073.94;4281183;28;21124;-63
2023/05/23 06:01:58;;;;;;;14.63;3.17;;;;;;;25.07;32.55;100072.22;4286516;27;22114;-63
2023/05/23 06:04:25;;;;;;;15.10;3.77;;;;;;;25.65;31.07;100083.06;4285465;28;20234;-62
2023/05/23 06:06:51;;;;;;;8.90;3.15;;;;;;;25.52;31.21;100079.56;4254630;28;20265;-66
2023/05/23 06:09:18;;;;;;;13.02;3.10;;;;;;;25.68;31.48;100080.59;4244249;28;21618;-65
2023/05/23 06:11:45;;;;;;;14.88;3.22;;;;;;;25.42;31.87;100071.09;4287555;28;20329;-66
2023/05/23 06:14:12;;;;;;;8.48;3.60;;;;;;;26.23;30.33;100077.97;4291305;28;20289;-63
2023/05/23 06:16:39;;;;;;;11.97;3.90;;;;;;;27.09;29.21;100076.28;4275878;28;20229;-63
2023/05/23 06:19:07;;;;;;;10.00;3.50;;;;;;;26.47;28.91;100069.34;4263354;28;20418;-63
2023/05/23 06:21:34;;;;;;;6.47;3.63;;;;;;;25.82;29.80;100066.38;4285746;28;20682;-65
2023/05/23 06:24:00;;;;;;;9.00;2.90;;;;;;;26.82;29.05;100065.25;4262855;28;20791;-66
2023/05/23 06:26:27;;;;;;;9.48;3.17;;;;;;;26.59;29.56;100067.22;4268957;28;22234;-63
2023/05/23 06:28:53;;;;;;;14.80;3.20;;;;;;;27.22;28.28;100061.09;4282408;28;20265;-62
2023/05/23 06:31:20;;;;;;;8.60;3.30;;;;;;;26.26;29.45;100064.41;4297078;28;22676;-63
2023/05/23 06:33:47;;;;;;;10.75;3.00;;;;;;;26.04;29.54;100064.44;4275227;28;23133;-63
2023/05/23 06:36:14;;;;;;;11.15;2.88;;;;;;;26.34;29.50;100068.69;4266794;28;20243;-61
2023/05/23 06:38:40;;;;;;;6.13;3.38;;;;;;;26.16;29.51;100057.94;4291579;28;20232;-61
2023/05/23 06:41:07;;;;;;;11.52;3.38;;;;;;;26.21;29.13;100044.94;4285357;28;20245;-64
2023/05/23 06:43:33;;;;;;;12.37;3.13;;;;;;;27.60;27.77;100053.56;4269477;28;20229;-63
2023/05/23 06:46:00;;;;;;;12.87;3.20;;;;;;;27.40;28.10;100064.53;4277287;28;20236;-66
2023/05/23 06:48:27;;;;;;;9.80;2.80;;;;;;;28.21;26.46;100049.34;4272802;28;23005;-63
2023/05/23 06:50:54;;;;;;;9.57;3.17;;;;;;;28.44;26.25;100049.94;4272461;28;20237;-63
2023/05/23 06:53:21;;;;;;;11.35;3.08;;;;;;;27.66;26.96;100052.47;4284081;28;20961;-63
2023/05/23 06:55:47;;;;;;;8.68;2.58;;;;;;;27.79;27.31;100039.19;4286577;28;22666;-68
2023/05/23 06:58:14;;;;;;;9.00;2.40;;;;;;;28.60;25.43;100036.88;4265147;28;20304;-63
2023/05/23 07:00:40;;;;;;;10.35;3.05;;;;;;;28.44;25.87;100033.25;4266549;28;20242;-62
2023/05/23 07:03:07;;;;;;;6.95;2.80;;;;;;;29.38;25.49;100035.72;4285217;28;20234;-65
2023/05/23 07:05:35;;;;;;;8.35;2.80;;;;;;;28.73;25.32;100033.56;4274354;28;21713;-63
2023/05/23 07:08:06;;;;;;;5.05;2.72;;;;;;;29.21;24.44;100033.22;4279369;28;20261;-67
2023/05/23 07:10:34;;;;;;;12.00;2.70;;;;;;;28.26;25.86;100024.31;4273943;28;20289;-62
2023/05/23 07:13:01;;;;;;;10.13;2.70;;;;;;;28.39;26.54;100033.25;4275806;28;20233;-62
2023/05/23 07:15:27;;;;;;;10.75;3.03;;;;;;;29.65;24.50;100037.28;4262939;28;20233;-64
2023/05/23 07:17:54;;;;;;;11.48;3.05;;;;;;;29.60;23.91;100022.56;4271749;28;20457;-64
2023/05/23 07:20:21;;;;;;;7.65;2.80;;;;;;;30.03;23.56;100018.16;4264826;28;22791;-64
2023/05/23 07:22:49;;;;;;;4.82;2.22;;;;;;;30.08;23.28;100014.50;4271874;28;25285;-65
2023/05/23 07:25:16;;;;;;;7.75;2.75;;;;;;;28.85;24.51;100015.72;4272082;28;20264;-62
2023/05/23 07:27:43;;;;;;;4.07;2.80;;;;;;;28.87;24.94;100021.88;4269372;28;21553;-61
2023/05/23 07:30:09;;;;;;;10.07;2.80;;;;;;;27.65;25.78;100024.94;4288131;28;20397;-63
2023/05/23 07:32:36;;;;;;;5.45;2.38;;;;;;;26.57;27.38;100013.94;4279133;28;20340;-65
2023/05/23 07:35:04;;;;;;;10.30;2.60;;;;;;;26.01;28.70;100016.97;4271280;28;20564;-62
2023/05/23 07:37:30;;;;;;;11.97;2.60;;;;;;;26.24;28.47;100015.84;4287692;28;20229;-61
2023/05/23 07:39:57;;;;;;;11.63;2.70;;;;;;;26.04;29.07;100013.66;4273288;28;22326;-63
2023/05/23 07:42:23;;;;;;;6.88;2.25;;;;;;;25.22;29.55;100005.16;4275237;28;20240;-67
2023/05/23 07:44:50;;;;;;;5.97;2.00;;;;;;;25.70;29.47;99999.97;4251720;28;21624;-60
2023/05/23 07:47:16;;;;;;;7.27;2.57;;;;;;;26.12;28.13;99998.53;4268535;28;22370;-60
2023/05/23 07:49:43;;;;;;;6.50;2.70;;;;;;;25.70;28.04;100002.75;4263179;28;20251;-62
2023/05/23 07:52:10;;;;;;;8.57;2.63;;;;;;;25.25;28.78;100001.88;4304970;28;20247;-63
2023/05/23 07:54:37;;;;;;;4.60;2.08;;;;;;;25.75;28.54;100000.03;4281501;28;20227;-62
2023/05/23 07:57:05;;;;;;;6.13;2.70;;;;;;;25.21;28.90;99996.00;4275767;28;20231;-61
2023/05/23 07:59:32;;;;;;;7.10;2.30;;;;;;;25.27;29.04;99994.13;4282872;28;20301;-61
2023/05/23 08:01:59;;;;;;;5.85;2.15;;;;;;;25.60;28.45;100004.31;4262406;28;22538;-60
2023/05/23 08:04:26;;;;;;;7.17;2.57;;;;;;;25.92;28.16;99994.41;4268300;28;20238;-61
2023/05/23 08:06:54;;;;;;;9.67;2.83;;;;;;;25.80;28.69;99997.31;4296768;28;20238;-59
2023/05/23 08:09:31;;;;;;;10.45;2.42;;;;;;;25.58;28.63;100000.13;4279491;28;20730;-66
2023/05/23 08:11:57;;;;;;;5.70;2.17;;;;;;;25.14;28.39;99998.97;4264874;28;20240;-60
2023/05/23 08:14:25;;;;;;;8.03;3.10;;;;;;;24.47;30.44;99991.50;4270549;28;21727;-64
2023/05/23 08:17:08;;;;;;;8.43;2.43;;;;;;;24.65;30.42;99993.19;4279553;28;20268;-64
2023/05/23 08:19:35;;;;;;;3.20;2.40;;;;;;;24.75;29.72;99984.22;4290290;28;21807;-64
2023/05/23 08:22:03;;;;;;;6.93;2.67;;;;;;;24.24;31.24;99987.81;4273895;28;21801;-62
2023/05/23 08:24:30;;;;;;;5.67;2.43;;;;;;;24.30;31.18;99985.97;4291517;28;20222;-65
2023/05/23 08:26:57;;;;;;;6.97;2.73;;;;;;;24.43;31.61;99987.59;4283886;28;20231;-64
2023/05/23 08:29:23;;;;;;;5.73;2.37;;;;;;;24.89;31.14;99985.56;4263017;28;20281;-66
2023/05/23 08:31:50;;;;;;;7.73;2.60;;;;;;;25.28;29.99;99980.03;4268343;28;20241;-61
2023/05/23 08:34:17;;;;;;;7.83;2.63;;;;;;;25.20;30.24;99974.09;4277992;28;20242;-64
2023/05/23 08:36:43;;;;;;;4.77;2.67;;;;;;;25.23;30.12;99974.44;4266062;28;20946;-62
2023/05/23 08:39:10;;;;;;;5.33;2.77;;;;;;;24.99;30.99;99982.94;4267665;28;22127;-63
2023/05/23 08:44:48;;;;;;;9.63;2.67;;;;;;;24.92;29.99;99965.69;4322924;27;20543;-65
2023/05/23 08:47:18;;;;;;;9.23;2.50;;;;;;;24.51;29.92;99965.00;4278071;28;20242;-65
2023/05/23 08:49:45;;;;;;;5.20;2.70;;;;;;;23.82;31.49;99966.81;4307630;27;20608;-66
2023/05/23 08:52:13;;;;;;;7.87;2.70;;;;;;;24.55;30.82;99968.13;4305051;27;20383;-65
2023/05/23 08:54:41;;;;;;;7.30;2.40;;;;;;;24.53;30.75;99960.94;4305567;27;20308;-64
2023/05/23 08:57:07;;;;;;;5.87;2.63;;;;;;;24.76;30.63;99964.63;4303718;27;20631;-64
2023/05/23 08:59:36;;;;;;;7.57;2.60;;;;;;;24.65;30.18;99969.13;4288081;27;22233;-63
2023/05/23 09:02:07;;;;;;;10.37;2.70;;;;;;;24.26;31.45;99957.13;4296315;27;20233;-61
2023/05/23 09:04:34;;;;;;;7.73;2.70;;;;;;;24.26;30.77;99970.94;4291360;27;20314;-62
2023/05/23 09:07:01;;;;;;;9.43;2.30;;;;;;;24.44;30.54;99959.66;4299409;27;20232;-67
2023/05/23 09:09:28;;;;;;;8.73;2.50;;;;;;;24.02;31.15;99955.34;4295549;28;20409;-65
2023/05/23 09:11:55;;;;;;;7.13;2.60;;;;;;;24.35;31.85;99961.16;4306353;28;20224;-63
2023/05/23 09:14:21;;;;;;;6.37;2.90;;;;;;;24.87;30.80;99960.09;4285366;28;20656;-63
2023/05/23 09:16:48;;;;;;;5.80;2.50;;;;;;;25.21;29.66;99953.63;4291606;28;22480;-63
2023/05/23 09:19:15;;;;;;;3.03;2.13;;;;;;;24.77;30.68;99959.91;4303308;28;21633;-61
2023/05/23 09:21:42;;;;;;;7.43;2.70;;;;;;;24.72;29.78;99944.06;4283865;28;21135;-66
2023/05/23 09:24:10;;;;;;;6.10;2.77;;;;;;;24.46;29.95;99949.19;4321633;28;21699;-67
2023/05/23 09:26:37;;;;;;;5.23;2.20;;;;;;;24.32;30.33;99950.63;4297854;28;20219;-65
2023/05/23 09:29:05;;;;;;;10.97;2.60;;;;;;;24.21;30.63;99939.38;4289496;28;26245;-66
2023/05/23 09:31:32;;;;;;;5.40;3.13;;;;;;;24.46;31.76;99937.28;4297728;28;21834;-65
2023/05/23 09:33:59;;;;;;;3.93;2.13;;;;;;;24.53;30.08;99949.84;4309254;28;20627;-65
2023/05/23 09:36:32;;;;;;;5.57;2.50;;;;;;;24.25;29.83;99945.22;4277636;28;20225;-65
2023/05/23 09:39:03;;;;;;;5.33;1.90;;;;;;;24.56;30.54;99954.03;4298070;28;20233;-66
2023/05/23 09:41:32;;;;;;;10.57;2.50;;;;;;;24.63;29.28;99943.63;4298328;28;20235;-65
2023/05/23 09:44:04;;;;;;;6.80;2.20;;;;;;;24.42;29.71;99941.66;4288283;28;20290;-62
2023/05/23 09:46:35;;;;;;;5.93;2.47;;;;;;;24.51;29.92;99935.44;4301342;28;20923;-65
2023/05/23 09:49:14;;;;;;;4.50;2.20;;;;;;;24.20;30.08;99936.88;4279558;28;20232;-64
2023/05/23 09:51:41;;;;;;;9.20;2.63;;;;;;;24.43;29.45;99933.06;4288651;28;20226;-62
2023/05/23 09:54:08;;;;;;;5.20;2.17;;;;;;;24.68;29.31;99929.06;4291048;28;20228;-64
2023/05/23 09:56:37;;;;;;;7.07;2.47;;;;;;;24.47;28.65;99934.25;4295980;28;20237;-64
2023/05/23 09:59:06;;;;;;;6.17;2.20;;;;;;;24.63;28.80;99932.56;4266135;28;21183;-64
2023/05/23 10:01:33;;;;;;;4.30;2.20;;;;;;;24.65;28.49;99937.84;4282674;28;21467;-64
2023/05/23 10:04:00;;;;;;;4.00;2.13;;;;;;;24.48;28.77;99940.63;4303493;28;21189;-62
2023/05/23 10:06:31;;;;;;;6.47;2.63;;;;;;;23.61;29.80;99935.19;4281606;28;20368;-65
2023/05/23 10:09:03;;;;;;;3.60;2.07;;;;;;;23.69;30.86;99931.19;4261571;28;20313;-66
2023/05/23 10:11:58;;;;;;;6.20;2.30;;;;;;;23.70;29.58;99922.66;4306897;28;20227;-65
2023/05/23 10:14:28;;;;;;;3.43;2.10;;;;;;;23.84;30.29;99934.25;4291129;28;20381;-65
2023/05/23 10:17:12;;;;;;;5.77;2.47;;;;;;;24.48;29.29;99933.16;4279639;28;21479;-63
2023/05/23 10:19:43;;;;;;;5.87;2.30;;;;;;;24.91;28.92;99925.25;4267983;28;20220;-63
2023/05/23 10:22:13;;;;;;;9.70;2.47;;;;;;;25.03;28.01;99929.84;4274312;28;20226;-65
2023/05/23 10:24:41;;;;;;;6.30;2.23;;;;;;;24.90;27.76;99922.75;4274804;28;20327;-64
2023/05/23 10:27:08;;;;;;;4.83;2.20;;;;;;;24.40;28.50;99929.97;4269897;28;25397;-64
2023/05/23 10:29:35;;;;;;;10.03;2.27;;;;;;;23.89;29.42;99908.63;4267679;28;21768;-66
2023/05/23 10:32:02;;;;;;;4.67;2.20;;;;;;;23.90;29.38;99927.72;4288858;28;20281;-62
2023/05/23 10:34:53;;;;;;;4.27;2.30;;;;;;;24.25;29.36;99925.88;4281476;28;20241;-63
2023/05/23 10:37:26;;;;;;;6.50;2.20;;;;;;;24.34;28.15;99916.06;4286307;28;20229;-64
2023/05/23 10:40:04;;;;;;;4.77;2.00;;;;;;;23.94;28.59;99903.22;4278552;28;21380;-65
2023/05/23 10:42:59;;;;;;;10.20;2.28;;;;;;;24.26;28.85;99919.25;4294971;28;21044;-64
2023/05/23 10:45:26;;;;;;;4.00;2.20;;;;;;;24.34;27.51;99926.28;4302137;28;20310;-66
2023/05/23 10:47:53;;;;;;;5.73;2.40;;;;;;;24.30;28.39;99925.13;4276737;28;20225;-65
2023/05/23 10:50:31;;;;;;;7.43;2.70;;;;;;;24.63;28.96;99931.72;4280748;28;20271;-66
2023/05/23 10:53:02;;;;;;;5.00;2.27;;;;;;;24.85;27.47;99926.28;4274124;28;20327;-66
2023/05/23 10:55:33;;;;;;;8.18;1.98;;;;;;;25.06;27.87;99921.00;4267666;28;20243;-62
2023/05/23 10:58:17;;;;;;;4.65;2.13;;;;;;;25.06;27.77;99909.94;4279020;28;20228;-65
2023/05/23 11:00:53;;;;;;;3.17;2.20;;;;;;;24.55;28.14;99921.09;4267831;28;20589;-67
2023/05/23 11:03:37;;;;;;;5.33;2.00;;;;;;;24.47;28.80;99917.63;4284731;28;20352;-65
2023/05/23 11:06:04;;;;;;;8.93;2.37;;;;;;;24.65;28.42;99922.09;4288857;28;20256;-65
2023/05/23 11:08:41;;;;;;;5.70;2.00;;;;;;;24.42;29.07;99913.97;4294404;28;20241;-64
2023/05/23 11:11:14;;;;;;;5.83;2.43;;;;;;;24.44;29.02;99912.63;4270826;28;21597;-64
2023/05/23 11:13:54;;;;;;;3.37;2.30;;;;;;;24.40;28.97;99905.91;4281435;28;20233;-64
2023/05/23 11:16:28;;;;;;;7.05;2.50;;;;;;;24.47;29.28;99891.91;4279707;28;25938;-65
2023/05/23 11:19:17;;;;;;;7.37;2.60;;;;;;;24.42;28.47;99902.91;4286181;28;20285;-64
2023/05/23 11:21:44;;;;;;;6.57;2.30;;;;;;;24.52;28.42;99901.13;4295267;28;21706;-65
2023/05/23 11:24:11;;;;;;;8.83;2.40;;;;;;;24.30;29.09;99903.00;4289301;28;22695;-64
2023/05/23 11:26:38;;;;;;;5.33;2.40;;;;;;;24.43;29.29;99904.59;4280595;28;20260;-66
2023/05/23 11:29:08;;;;;;;7.47;2.70;;;;;;;24.92;28.28;99895.66;4271693;28;20631;-65
2023/05/23 11:31:39;;;;;;;4.10;2.20;;;;;;;24.71;28.24;99891.75;4291178;28;22904;-66
2023/05/23 11:34:06;;;;;;;4.17;2.07;;;;;;;25.01;27.82;99888.53;4271236;28;20286;-65